Time;durP1;ratioP1;P1;durP2;ratioP2;P2;SDS_P1;SDS_P2;PMS_P1;PMS_P2;Temp;Humidity;BMP_temperature;BMP_pressure;BME280_temperature;BME280_humidity;BME280_pressure;Samples;Min_cycle;Max_cycle;Signal;HPM_P1;HPM_P2
2022/01/22 00:00:43;;;;;;;23.03;7.43;;;6.00;95.80;;;;;;5032631;28;20219;-88
2022/01/22 00:03:09;;;;;;;26.40;7.87;;;5.90;95.80;;;;;;5032669;28;20187;-89
2022/01/22 00:05:35;;;;;;;22.77;8.37;;;5.90;95.80;;;;;;5032915;28;20210;-88
2022/01/22 00:08:00;;;;;;;25.57;8.73;;;5.90;95.80;;;;;;5034302;28;20172;-88
2022/01/22 00:10:26;;;;;;;26.97;8.27;;;6.00;95.80;;;;;;5032923;28;20703;-89
2022/01/22 00:15:28;;;;;;;18.90;7.10;;;5.90;95.80;;;;;;5033997;28;20152;-89
2022/01/22 00:17:55;;;;;;;16.07;6.50;;;5.90;95.80;;;;;;5033881;28;20187;-87
2022/01/22 00:20:24;;;;;;;19.60;8.47;;;5.90;95.80;;;;;;5032691;28;20251;-88
2022/01/22 00:22:51;;;;;;;26.97;8.57;;;5.90;95.80;;;;;;5034229;28;20207;-89
2022/01/22 00:25:19;;;;;;;24.97;9.17;;;5.90;95.80;;;;;;5033698;28;20195;-88
2022/01/22 00:27:46;;;;;;;26.17;10.77;;;5.90;95.80;;;;;;5032855;28;20164;-89
2022/01/22 00:30:16;;;;;;;24.43;11.57;;;5.90;95.80;;;;;;5032884;28;20196;-89
2022/01/22 00:32:42;;;;;;;28.37;12.37;;;5.90;95.80;;;;;;5034078;28;20497;-89
2022/01/22 00:35:08;;;;;;;27.80;12.60;;;5.90;95.80;;;;;;5033290;28;20180;-89
2022/01/22 00:37:35;;;;;;;27.13;12.47;;;5.90;95.80;;;;;;5032832;28;20280;-87
2022/01/22 00:40:03;;;;;;;24.07;12.20;;;5.90;95.80;;;;;;5032500;28;20249;-88
2022/01/22 00:42:31;;;;;;;34.60;12.00;;;5.90;95.80;;;;;;5032378;28;20620;-88
2022/01/22 00:44:56;;;;;;;31.50;12.43;;;5.90;95.80;;;;;;5032475;28;20200;-88
2022/01/22 00:47:22;;;;;;;25.17;10.63;;;5.90;95.80;;;;;;5032416;28;20188;-88
2022/01/22 00:49:47;;;;;;;28.10;12.53;;;5.90;95.80;;;;;;5033574;28;20307;-89
2022/01/22 00:52:14;;;;;;;30.90;11.57;;;6.00;95.80;;;;;;5032696;28;20549;-88
2022/01/22 00:54:40;;;;;;;32.77;11.93;;;5.90;95.70;;;;;;5032396;28;20333;-88
2022/01/22 00:57:05;;;;;;;33.13;13.23;;;6.00;95.70;;;;;;5032501;28;20734;-89
2022/01/22 00:59:31;;;;;;;22.67;10.33;;;5.90;95.70;;;;;;5032286;28;20224;-89
2022/01/22 01:01:58;;;;;;;23.77;9.70;;;5.90;95.70;;;;;;5032815;28;20263;-90
2022/01/22 01:04:23;;;;;;;27.77;9.20;;;5.90;95.70;;;;;;5034020;28;20672;-89
2022/01/22 01:06:49;;;;;;;21.57;8.60;;;5.90;95.70;;;;;;5035985;28;20183;-89
2022/01/22 01:09:16;;;;;;;28.63;9.83;;;5.80;95.70;;;;;;5036467;28;20602;-89
2022/01/22 01:11:47;;;;;;;35.93;9.83;;;5.90;95.70;;;;;;5037390;28;20207;-89
2022/01/22 01:14:19;;;;;;;32.97;9.73;;;5.90;95.70;;;;;;5035589;28;20659;-89
2022/01/22 01:17:08;;;;;;;49.13;12.97;;;5.90;95.70;;;;;;5035787;28;20251;-89
2022/01/22 01:35:48;;;;;;;38.33;11.27;;;5.80;95.60;;;;;;5037480;28;20163;-88
2022/01/22 01:38:14;;;;;;;36.40;11.77;;;5.80;95.60;;;;;;5037162;28;20206;-88
2022/01/22 01:40:41;;;;;;;31.27;10.83;;;5.80;95.70;;;;;;5036554;28;20275;-89
2022/01/22 01:43:18;;;;;;;48.00;11.87;;;5.80;95.60;;;;;;5034821;28;20176;-88
2022/01/22 01:45:43;;;;;;;50.00;10.83;;;5.80;95.60;;;;;;5034684;28;20344;-89
2022/01/22 01:48:15;;;;;;;41.80;9.93;;;5.80;95.60;;;;;;5034984;28;20668;-90
2022/01/22 01:50:42;;;;;;;24.37;8.77;;;5.80;95.70;;;;;;5035860;28;20257;-89
2022/01/22 01:53:29;;;;;;;39.73;10.67;;;5.80;95.70;;;;;;5035884;28;20172;-89
2022/01/22 01:58:22;;;;;;;35.63;11.67;;;5.80;95.70;;;;;;5036793;28;20172;-90
2022/01/22 02:00:48;;;;;;;45.97;11.00;;;5.80;95.70;;;;;;5036117;28;20219;-89
2022/01/22 02:03:14;;;;;;;34.63;9.43;;;5.80;95.70;;;;;;5035090;28;20579;-89
2022/01/22 02:05:40;;;;;;;47.43;10.77;;;5.80;95.70;;;;;;5036007;28;20196;-89
2022/01/22 02:08:07;;;;;;;40.77;10.13;;;5.80;95.70;;;;;;5034788;28;20616;-90
2022/01/22 02:10:37;;;;;;;38.90;11.00;;;5.80;95.70;;;;;;5034979;28;20283;-90
2022/01/22 02:13:58;;;;;;;31.23;10.53;;;5.70;95.70;;;;;;5035506;28;20301;-90
2022/01/22 02:24:05;;;;;;;40.13;10.67;;;5.70;95.70;;;;;;5035843;28;20171;-90
2022/01/22 02:26:31;;;;;;;38.07;11.27;;;5.80;95.70;;;;;;5034683;28;20187;-90
2022/01/22 02:28:57;;;;;;;34.23;10.50;;;5.70;95.70;;;;;;5034263;28;20203;-90
2022/01/22 02:34:14;;;;;;;40.67;11.20;;;5.70;95.70;;;;;;5036048;28;20160;-89
2022/01/22 02:36:57;;;;;;;34.57;10.57;;;5.70;95.70;;;;;;5034230;28;20215;-90
2022/01/22 02:39:35;;;;;;;31.97;9.23;;;5.70;95.70;;;;;;5034723;28;20200;-89
2022/01/22 02:42:01;;;;;;;27.97;9.23;;;5.70;95.70;;;;;;5034181;28;20589;-89
2022/01/22 02:44:35;;;;;;;27.47;9.80;;;5.70;95.80;;;;;;5034762;28;20208;-89
2022/01/22 02:47:04;;;;;;;27.97;8.90;;;5.60;95.70;;;;;;5034007;28;20169;-89
2022/01/22 02:49:30;;;;;;;35.53;9.63;;;5.70;95.70;;;;;;5034068;28;20200;-89
2022/01/22 02:52:00;;;;;;;41.77;10.43;;;5.70;95.70;;;;;;5035542;28;20215;-89
2022/01/22 02:54:26;;;;;;;33.93;10.43;;;5.70;95.70;;;;;;5033941;28;20195;-89
2022/01/22 02:56:52;;;;;;;29.60;8.73;;;5.70;95.70;;;;;;5035161;28;20259;-90
2022/01/22 02:59:21;;;;;;;36.57;9.37;;;5.70;95.70;;;;;;5033533;28;20219;-89
2022/01/22 03:01:47;;;;;;;37.73;10.17;;;5.70;95.70;;;;;;5033656;28;20180;-89
2022/01/22 03:04:13;;;;;;;34.03;9.10;;;5.70;95.70;;;;;;5034143;28;20179;-89
2022/01/22 03:06:38;;;;;;;28.83;9.17;;;5.60;95.70;;;;;;5033890;28;20187;-89
2022/01/22 03:09:07;;;;;;;33.60;10.27;;;5.70;95.80;;;;;;5033459;28;20199;-89
2022/01/22 03:11:42;;;;;;;30.17;10.07;;;5.70;95.80;;;;;;5035349;28;20261;-89
2022/01/22 03:15:24;;;;;;;37.73;11.73;;;5.70;95.70;;;;;;5033603;28;20172;-91
2022/01/22 03:17:28;;;;;;;29.50;9.33;;;5.70;95.80;;;;;;5034255;28;20182;-89
2022/01/22 03:20:03;;;;;;;36.37;10.07;;;5.70;95.70;;;;;;5033348;28;20200;-90
2022/01/22 03:27:38;;;;;;;33.57;10.37;;;5.70;95.80;;;;;;5034493;28;20262;-89
2022/01/22 03:30:05;;;;;;;21.40;9.97;;;5.60;95.80;;;;;;5033403;28;20676;-89
2022/01/22 03:32:38;;;;;;;34.47;10.73;;;5.60;95.80;;;;;;5033172;28;20557;-90
2022/01/22 03:37:37;;;;;;;36.33;11.27;;;5.60;95.80;;;;;;5035168;28;20168;-89
2022/01/22 03:40:03;;;;;;;32.37;10.77;;;5.60;95.80;;;;;;5034401;28;20192;-89
2022/01/22 03:42:29;;;;;;;35.93;12.73;;;5.60;95.80;;;;;;5034019;28;20215;-89
2022/01/22 03:44:55;;;;;;;46.47;13.73;;;5.60;95.80;;;;;;5034670;28;20245;-89
2022/01/22 03:47:21;;;;;;;31.70;11.77;;;5.60;95.80;;;;;;5034590;28;20257;-89
2022/01/22 03:49:47;;;;;;;38.37;13.13;;;5.60;95.80;;;;;;5033007;28;20204;-90
2022/01/22 03:52:13;;;;;;;37.60;13.50;;;5.60;95.90;;;;;;5033187;28;20210;-89
2022/01/22 03:54:39;;;;;;;45.20;14.73;;;5.60;95.80;;;;;;5033790;28;20188;-91
2022/01/22 03:57:06;;;;;;;31.03;11.63;;;5.50;95.90;;;;;;5033196;28;20586;-89
2022/01/22 03:59:32;;;;;;;31.80;10.83;;;5.60;95.90;;;;;;5032927;28;20718;-91
2022/01/22 04:02:42;;;;;;;27.87;10.83;;;5.60;95.90;;;;;;5032765;28;20227;-89
2022/01/22 04:05:01;;;;;;;29.13;10.57;;;5.60;95.90;;;;;;5033162;28;20200;-89
2022/01/22 04:10:06;;;;;;;28.40;10.93;;;5.60;95.90;;;;;;5033575;28;20203;-89
2022/01/22 04:12:45;;;;;;;29.43;11.07;;;5.60;95.90;;;;;;5032314;28;20176;-90
2022/01/22 04:15:13;;;;;;;35.90;11.13;;;5.60;95.90;;;;;;5032033;28;20199;-89
2022/01/22 04:24:50;;;;;;;28.30;8.90;;;5.60;95.90;;;;;;5032326;28;20188;-88
2022/01/22 04:26:11;;;;;;;32.80;9.27;;;5.60;95.90;;;;;;5032994;28;20217;-88
2022/01/22 04:28:37;;;;;;;30.97;10.40;;;5.60;95.90;;;;;;5031781;28;20167;-90
2022/01/22 04:31:02;;;;;;;30.80;9.10;;;5.60;95.90;;;;;;5032536;28;20279;-90
2022/01/22 04:33:28;;;;;;;44.13;11.87;;;5.60;95.90;;;;;;5032393;28;20187;-90
2022/01/22 04:35:54;;;;;;;60.43;13.63;;;5.50;95.90;;;;;;5031825;28;20180;-89
2022/01/22 04:38:19;;;;;;;43.70;12.23;;;5.60;95.90;;;;;;5034300;28;20569;-91
2022/01/22 04:40:45;;;;;;;47.97;12.83;;;5.50;95.90;;;;;;5035907;28;20585;-88
2022/01/22 04:43:11;;;;;;;48.50;12.97;;;5.60;95.90;;;;;;5035784;28;20180;-89
2022/01/22 04:56:14;;;;;;;47.27;13.30;;;5.60;96.00;;;;;;5036848;28;20175;-89
2022/01/22 04:58:39;;;;;;;50.20;12.80;;;5.60;96.00;;;;;;5035188;28;20175;-87
2022/01/22 05:01:05;;;;;;;36.57;11.87;;;5.60;96.00;;;;;;5035362;28;20172;-89
2022/01/22 05:03:31;;;;;;;45.07;13.43;;;5.60;96.00;;;;;;5036473;28;20172;-89
2022/01/22 05:05:57;;;;;;;43.00;12.17;;;5.50;96.00;;;;;;5035114;28;20204;-89
2022/01/22 05:08:23;;;;;;;39.20;12.60;;;5.50;96.00;;;;;;5035185;28;20185;-89
2022/01/22 05:10:48;;;;;;;31.43;10.87;;;5.60;96.00;;;;;;5035038;28;20214;-89
2022/01/22 05:13:14;;;;;;;33.23;11.57;;;5.60;96.00;;;;;;5035353;28;20583;-89
2022/01/22 05:15:39;;;;;;;32.70;11.30;;;5.50;96.00;;;;;;5035003;28;20245;-89
2022/01/22 05:18:07;;;;;;;38.67;11.30;;;5.60;96.00;;;;;;5034884;28;20275;-89
2022/01/22 05:20:41;;;;;;;39.03;11.67;;;5.60;96.00;;;;;;5035200;28;20560;-89
2022/01/22 05:23:13;;;;;;;29.27;10.07;;;5.60;96.00;;;;;;5034918;28;20171;-88
2022/01/22 05:25:48;;;;;;;26.93;9.67;;;5.60;96.00;;;;;;5034794;28;20199;-88
2022/01/22 05:28:37;;;;;;;25.80;9.77;;;5.60;96.00;;;;;;5034838;28;20163;-88
2022/01/22 05:31:07;;;;;;;20.33;9.60;;;5.50;96.00;;;;;;5035884;28;20179;-89
2022/01/22 05:39:06;;;;;;;27.13;8.90;;;5.50;96.00;;;;;;5036399;28;20234;-89
2022/01/22 05:41:32;;;;;;;21.47;8.40;;;5.50;96.00;;;;;;5035790;28;20156;-88
2022/01/22 05:43:58;;;;;;;28.17;8.53;;;5.50;96.00;;;;;;5034422;28;20186;-90
2022/01/22 05:46:24;;;;;;;35.80;9.83;;;5.50;96.00;;;;;;5034471;28;20210;-88
2022/01/22 05:48:49;;;;;;;32.30;10.03;;;5.50;96.00;;;;;;5034220;28;20200;-89
2022/01/22 05:51:16;;;;;;;30.67;10.40;;;5.50;96.00;;;;;;5033802;28;20178;-88
2022/01/22 06:01:38;;;;;;;41.20;11.33;;;5.50;96.00;;;;;;5035884;28;20170;-89
2022/01/22 06:04:04;;;;;;;44.43;10.17;;;5.50;96.00;;;;;;5034237;28;20179;-89
2022/01/22 06:06:29;;;;;;;54.03;11.20;;;5.50;96.00;;;;;;5035207;28;20201;-89
2022/01/22 06:08:57;;;;;;;35.63;9.43;;;5.50;96.00;;;;;;5034196;28;20226;-89
2022/01/22 06:11:25;;;;;;;62.60;11.30;;;5.50;96.00;;;;;;5033917;28;20172;-88
2022/01/22 06:13:51;;;;;;;36.60;9.40;;;5.50;96.00;;;;;;5034704;28;20225;-88
2022/01/22 06:16:19;;;;;;;41.33;9.73;;;5.50;96.10;;;;;;5033823;28;20263;-88
2022/01/22 06:18:45;;;;;;;50.50;10.07;;;5.50;96.10;;;;;;5034055;28;20257;-88
2022/01/22 06:21:11;;;;;;;45.90;8.97;;;5.50;96.00;;;;;;5033751;28;20182;-88
2022/01/22 06:23:39;;;;;;;36.13;8.47;;;5.50;96.00;;;;;;5034973;28;20180;-88
2022/01/22 06:26:06;;;;;;;43.50;9.13;;;5.50;96.10;;;;;;5033547;28;20199;-88
2022/01/22 06:28:33;;;;;;;35.57;6.77;;;5.50;96.00;;;;;;5034859;28;20259;-89
2022/01/22 06:31:00;;;;;;;44.07;8.03;;;5.50;96.10;;;;;;5033509;28;20640;-88
2022/01/22 06:33:26;;;;;;;43.03;8.03;;;5.50;96.10;;;;;;5033465;28;20179;-89
2022/01/22 06:35:52;;;;;;;19.00;6.40;;;5.50;96.10;;;;;;5033450;28;20176;-88
2022/01/22 06:38:18;;;;;;;30.30;7.70;;;5.60;96.10;;;;;;5033475;28;20237;-88
2022/01/22 06:43:29;;;;;;;31.57;8.67;;;5.60;96.20;;;;;;5035194;28;20178;-89
2022/01/22 06:45:55;;;;;;;37.07;9.80;;;5.60;96.20;;;;;;5033197;28;20207;-89
2022/01/22 06:48:21;;;;;;;39.93;8.13;;;5.60;96.20;;;;;;5033486;28;20210;-89
2022/01/22 06:50:47;;;;;;;26.30;7.53;;;5.60;96.20;;;;;;5033388;28;20195;-89
2022/01/22 06:53:13;;;;;;;28.90;7.37;;;5.60;96.20;;;;;;5033222;28;20176;-88
2022/01/22 06:55:43;;;;;;;24.07;7.37;;;5.60;96.20;;;;;;5033104;28;20219;-88
2022/01/22 06:58:09;;;;;;;37.00;10.40;;;5.60;96.20;;;;;;5034007;28;20169;-89
2022/01/22 07:00:35;;;;;;;29.87;8.37;;;5.60;96.20;;;;;;5032637;28;20221;-89
2022/01/22 07:03:02;;;;;;;34.93;8.73;;;5.60;96.20;;;;;;5032580;28;20188;-88
2022/01/22 07:05:28;;;;;;;28.57;8.27;;;5.70;96.20;;;;;;5032880;28;20208;-88
2022/01/22 07:07:54;;;;;;;28.53;8.63;;;5.60;96.20;;;;;;5032951;28;20601;-88
2022/01/22 07:10:19;;;;;;;34.20;9.37;;;5.60;96.20;;;;;;5032902;28;20189;-88
2022/01/22 07:12:45;;;;;;;40.83;10.23;;;5.60;96.20;;;;;;5034049;28;20172;-88
2022/01/22 07:15:11;;;;;;;35.50;10.23;;;5.60;96.20;;;;;;5032771;28;20186;-88
2022/01/22 07:17:39;;;;;;;31.23;9.53;;;5.60;96.20;;;;;;5032741;28;20572;-89
2022/01/22 07:20:12;;;;;;;34.23;10.47;;;5.60;96.20;;;;;;5032647;28;20287;-89
2022/01/22 07:25:24;;;;;;;36.43;8.47;;;5.60;96.20;;;;;;5032859;28;20215;-89
2022/01/22 07:27:50;;;;;;;30.43;7.67;;;5.60;96.20;;;;;;5032691;28;20201;-89
2022/01/22 07:30:15;;;;;;;27.47;6.13;;;5.60;96.20;;;;;;5032444;28;20197;-88
2022/01/22 07:32:43;;;;;;;24.60;6.20;;;5.60;96.20;;;;;;5033739;28;20203;-88
2022/01/22 07:35:11;;;;;;;19.97;6.00;;;5.60;96.20;;;;;;5032499;28;20186;-88
2022/01/22 07:37:37;;;;;;;27.80;5.77;;;5.60;96.20;;;;;;5032389;28;20555;-88
2022/01/22 07:40:08;;;;;;;16.10;4.23;;;5.60;96.20;;;;;;5033047;28;20198;-88
2022/01/22 07:42:34;;;;;;;24.13;4.40;;;5.60;96.20;;;;;;5032943;28;20179;-88
2022/01/22 07:44:59;;;;;;;21.30;4.27;;;5.60;96.20;;;;;;5033378;28;20260;-88
2022/01/22 07:47:25;;;;;;;24.53;5.20;;;5.60;96.20;;;;;;5032256;28;20183;-88
2022/01/22 07:49:51;;;;;;;25.13;4.60;;;5.60;96.20;;;;;;5032242;28;20207;-88
2022/01/22 07:52:16;;;;;;;24.10;4.50;;;5.60;96.10;;;;;;5032197;28;20181;-88
2022/01/22 07:54:42;;;;;;;24.57;3.73;;;5.60;96.10;;;;;;5032152;28;20179;-88
2022/01/22 07:57:08;;;;;;;20.63;3.83;;;5.60;96.10;;;;;;5032452;28;20178;-89
2022/01/22 07:59:33;;;;;;;22.13;3.50;;;5.60;96.10;;;;;;5033363;28;20211;-88
2022/01/22 08:02:03;;;;;;;24.77;3.93;;;5.60;96.10;;;;;;5032232;28;20180;-89
2022/01/22 08:04:30;;;;;;;20.33;3.10;;;5.70;96.10;;;;;;5032108;28;20171;-88
2022/01/22 08:06:58;;;;;;;26.73;3.97;;;5.70;96.10;;;;;;5033311;28;20535;-88
2022/01/22 08:09:24;;;;;;;13.83;2.90;;;5.70;96.10;;;;;;5032067;28;20269;-89
2022/01/22 08:11:50;;;;;;;28.83;3.90;;;5.60;96.10;;;;;;5032008;28;20659;-89
2022/01/22 08:14:16;;;;;;;18.17;3.30;;;5.60;96.10;;;;;;5035657;28;20603;-89
2022/01/22 08:16:46;;;;;;;19.47;3.90;;;5.50;96.00;;;;;;5036032;28;20179;-88
2022/01/22 08:19:11;;;;;;;21.33;4.43;;;5.50;96.00;;;;;;5035981;28;20285;-88
2022/01/22 08:21:37;;;;;;;24.70;4.40;;;5.50;96.00;;;;;;5036252;28;20321;-89
2022/01/22 08:24:03;;;;;;;28.97;4.63;;;5.40;96.00;;;;;;5035930;28;20179;-89
2022/01/22 08:26:33;;;;;;;23.40;5.37;;;5.40;96.00;;;;;;5037030;28;20210;-88
2022/01/22 08:29:01;;;;;;;20.67;3.23;;;5.50;96.00;;;;;;5036929;28;20195;-89
2022/01/22 08:31:46;;;;;;;26.20;3.73;;;5.50;96.00;;;;;;5035965;28;20182;-89
2022/01/22 08:36:56;;;;;;;19.47;3.60;;;5.60;96.00;;;;;;5037499;28;20179;-89
2022/01/22 08:39:22;;;;;;;23.20;3.70;;;5.60;96.00;;;;;;5036882;28;20667;-89
2022/01/22 08:41:47;;;;;;;27.23;3.77;;;5.60;96.00;;;;;;5035633;28;20184;-89
2022/01/22 08:44:13;;;;;;;28.40;3.27;;;5.70;96.00;;;;;;5035635;28;20175;-89
2022/01/22 08:46:40;;;;;;;22.30;3.67;;;5.70;96.00;;;;;;5036712;28;20210;-89
2022/01/22 08:49:08;;;;;;;16.27;3.43;;;5.80;96.00;;;;;;5035452;28;20253;-89
2022/01/22 08:51:35;;;;;;;19.40;3.20;;;5.80;96.00;;;;;;5036686;28;20176;-89
2022/01/22 08:54:01;;;;;;;16.80;3.37;;;5.80;96.00;;;;;;5035399;28;20556;-89
2022/01/22 08:56:28;;;;;;;6.50;2.10;;;5.80;96.00;;;;;;5036582;28;20183;-89
2022/01/22 08:58:54;;;;;;;11.33;3.03;;;5.90;96.00;;;;;;5035313;28;20302;-89
2022/01/22 09:01:19;;;;;;;11.37;2.57;;;5.90;96.00;;;;;;5035377;28;20196;-89
2022/01/22 09:03:46;;;;;;;12.30;2.50;;;5.90;96.00;;;;;;5036537;28;20550;-89
2022/01/22 09:06:12;;;;;;;17.13;3.23;;;5.90;96.00;;;;;;5035172;28;20210;-87
2022/01/22 09:08:39;;;;;;;16.67;3.20;;;5.90;96.00;;;;;;5035098;28;20175;-88
2022/01/22 09:11:06;;;;;;;12.23;2.87;;;6.00;96.00;;;;;;5036311;28;20214;-87
2022/01/22 09:13:32;;;;;;;18.23;3.47;;;6.00;96.00;;;;;;5035360;28;20263;-88
2022/01/22 09:15:58;;;;;;;15.47;4.13;;;6.10;96.00;;;;;;5035103;28;20267;-88
2022/01/22 09:18:24;;;;;;;10.67;4.00;;;6.10;96.00;;;;;;5035365;28;20183;-88
2022/01/22 09:23:17;;;;;;;13.40;4.00;;;6.20;96.00;;;;;;5036668;28;20169;-88
2022/01/22 09:25:43;;;;;;;17.03;4.50;;;6.20;96.00;;;;;;5033575;28;20201;-88
2022/01/22 09:28:13;;;;;;;15.53;4.80;;;6.20;96.00;;;;;;5036014;28;20229;-88
2022/01/22 09:30:43;;;;;;;13.23;4.83;;;6.20;95.90;;;;;;5036634;28;20185;-88
2022/01/22 09:33:09;;;;;;;21.07;4.60;;;6.20;95.90;;;;;;5035223;28;20597;-88
2022/01/22 09:35:36;;;;;;;16.93;4.77;;;6.30;95.90;;;;;;5035924;28;20255;-88
2022/01/22 09:38:01;;;;;;;15.00;4.27;;;6.20;95.90;;;;;;5035205;28;20184;-87
2022/01/22 09:40:29;;;;;;;12.97;3.80;;;6.30;95.90;;;;;;5035853;28;20201;-87
2022/01/22 09:42:56;;;;;;;11.80;3.83;;;6.30;95.90;;;;;;5034508;28;20180;-88
2022/01/22 09:45:22;;;;;;;18.80;4.07;;;6.20;95.80;;;;;;5034466;28;20197;-89
2022/01/22 09:47:49;;;;;;;16.80;3.67;;;6.20;95.80;;;;;;5034528;28;20197;-89
2022/01/22 09:50:21;;;;;;;12.37;3.87;;;6.20;95.70;;;;;;5034281;28;20279;-91
2022/01/22 09:52:47;;;;;;;23.87;4.30;;;6.20;95.70;;;;;;5035647;28;20176;-88
2022/01/22 09:55:13;;;;;;;13.90;3.67;;;6.20;95.70;;;;;;5035622;28;20644;-89
2022/01/22 09:57:39;;;;;;;20.53;3.77;;;6.20;95.70;;;;;;5034530;28;20179;-87
2022/01/22 10:00:08;;;;;;;13.10;3.30;;;6.20;95.80;;;;;;5034191;28;20560;-89
2022/01/22 10:02:42;;;;;;;9.60;3.40;;;6.20;95.80;;;;;;5035305;28;20176;-90
2022/01/22 10:05:32;;;;;;;10.43;2.70;;;6.20;95.70;;;;;;5034119;28;20199;-89
2022/01/22 10:08:27;;;;;;;9.10;3.07;;;6.10;95.70;;;;;;5034131;28;20166;-87
2022/01/22 10:10:54;;;;;;;7.90;2.87;;;6.20;95.80;;;;;;5034075;28;20164;-88
2022/01/22 10:13:47;;;;;;;7.93;3.40;;;6.20;95.80;;;;;;5035160;28;20263;-89
2022/01/22 10:16:34;;;;;;;5.73;3.07;;;6.20;95.80;;;;;;5028026;28;20241;-88
2022/01/22 10:19:18;;;;;;;4.00;2.80;;;6.20;95.90;;;;;;5033953;28;20258;-87
2022/01/22 10:21:57;;;;;;;5.03;2.40;;;6.30;95.90;;;;;;5035642;28;20164;-89
2022/01/22 10:24:41;;;;;;;5.87;2.63;;;6.20;95.90;;;;;;5033771;28;20265;-89
2022/01/22 10:30:00;;;;;;;6.90;2.40;;;6.30;95.90;;;;;;5035044;28;20188;-87
2022/01/22 10:32:39;;;;;;;9.47;3.00;;;6.30;95.90;;;;;;5033702;28;20176;-89
2022/01/22 10:35:17;;;;;;;5.37;2.23;;;6.30;96.00;;;;;;5034186;28;20165;-89
2022/01/22 10:37:43;;;;;;;5.27;2.37;;;6.30;96.00;;;;;;5034526;28;20165;-89
2022/01/22 10:40:27;;;;;;;3.43;2.33;;;6.30;95.90;;;;;;5034654;28;20203;-88
2022/01/22 10:43:12;;;;;;;5.40;1.90;;;6.30;96.00;;;;;;5033498;28;20168;-87
2022/01/22 10:45:43;;;;;;;1.70;1.60;;;6.30;96.00;;;;;;5033455;28;20196;-86
2022/01/22 10:48:16;;;;;;;3.73;2.43;;;6.30;96.00;;;;;;5034082;28;20307;-88
2022/01/22 10:50:42;;;;;;;3.27;1.90;;;6.40;96.00;;;;;;5033380;28;20199;-89
2022/01/22 10:53:08;;;;;;;2.30;1.83;;;6.40;96.00;;;;;;5034764;28;20175;-88
2022/01/22 10:56:00;;;;;;;5.40;2.27;;;6.40;96.00;;;;;;5033526;28;20184;-88
2022/01/22 10:58:26;;;;;;;6.03;2.40;;;6.40;96.00;;;;;;5033280;28;20172;-88
2022/01/22 11:01:05;;;;;;;4.07;2.20;;;6.50;96.00;;;;;;5034269;28;20192;-88
2022/01/22 11:03:32;;;;;;;3.00;2.20;;;6.40;96.00;;;;;;5034374;28;20157;-89
2022/01/22 11:06:03;;;;;;;4.13;2.20;;;6.50;96.00;;;;;;5033424;28;20247;-90
2022/01/22 11:08:29;;;;;;;5.23;2.40;;;6.60;96.00;;;;;;5032998;28;20173;-88
2022/01/22 11:10:56;;;;;;;12.60;3.20;;;6.60;96.00;;;;;;5032997;28;20169;-88
2022/01/22 11:13:21;;;;;;;8.87;2.30;;;6.60;96.00;;;;;;5032965;28;20169;-88
2022/01/22 11:15:50;;;;;;;7.27;2.00;;;6.60;95.90;;;;;;5033305;28;20537;-88
2022/01/22 11:18:21;;;;;;;5.23;2.00;;;6.60;95.90;;;;;;5033179;28;20267;-88
2022/01/22 11:20:47;;;;;;;9.87;2.37;;;6.70;95.90;;;;;;5034289;28;20224;-88
2022/01/22 11:23:16;;;;;;;9.23;2.60;;;6.70;95.90;;;;;;5033088;28;20264;-88
2022/01/22 11:25:42;;;;;;;9.53;2.37;;;6.70;95.80;;;;;;5033014;28;20268;-87
2022/01/22 11:28:08;;;;;;;6.10;2.30;;;6.70;95.80;;;;;;5032978;28;20177;-89
2022/01/22 11:30:36;;;;;;;7.83;2.10;;;6.80;95.80;;;;;;5032610;28;20545;-88
2022/01/22 11:33:07;;;;;;;11.27;2.73;;;6.70;95.80;;;;;;5034430;28;20623;-88
2022/01/22 11:35:36;;;;;;;9.03;2.13;;;6.80;95.80;;;;;;5032603;28;20172;-88
2022/01/22 11:38:07;;;;;;;12.17;2.23;;;6.90;95.80;;;;;;5034058;28;20180;-88
2022/01/22 11:40:34;;;;;;;9.20;2.50;;;6.80;95.70;;;;;;5033787;28;20193;-87
2022/01/22 11:43:07;;;;;;;10.17;2.20;;;7.00;95.70;;;;;;5032743;28;20188;-88
2022/01/22 11:45:41;;;;;;;10.30;2.87;;;7.10;95.70;;;;;;5032922;28;20204;-88
2022/01/22 11:48:11;;;;;;;6.03;2.30;;;7.20;95.60;;;;;;5031934;28;20246;-88
2022/01/22 11:50:37;;;;;;;8.27;2.07;;;7.20;95.60;;;;;;5032490;28;20247;-88
2022/01/22 11:53:26;;;;;;;6.47;2.90;;;7.10;95.50;;;;;;5032430;28;20173;-88
2022/01/22 11:56:09;;;;;;;3.63;2.13;;;7.00;95.30;;;;;;5032221;28;20203;-87
2022/01/22 11:58:58;;;;;;;4.03;2.10;;;6.90;95.30;;;;;;5033151;28;20231;-88
2022/01/22 12:01:52;;;;;;;8.90;2.30;;;6.90;95.20;;;;;;5033100;28;20629;-88
2022/01/22 12:04:22;;;;;;;5.47;2.53;;;6.90;95.20;;;;;;5032193;28;20695;-88
2022/01/22 12:07:02;;;;;;;5.67;2.00;;;6.80;95.10;;;;;;5033231;28;20211;-88
2022/01/22 12:15:19;;;;;;;6.50;1.90;;;7.00;95.10;;;;;;5033480;28;20222;-88
2022/01/22 12:17:53;;;;;;;9.20;2.17;;;7.10;95.10;;;;;;5032329;28;20199;-88
2022/01/22 12:20:42;;;;;;;5.73;2.27;;;7.00;95.00;;;;;;5033554;28;20675;-88
2022/01/22 12:23:12;;;;;;;2.60;1.90;;;6.90;95.00;;;;;;5032232;28;20173;-87
2022/01/22 12:25:38;;;;;;;5.30;2.50;;;6.70;94.90;;;;;;5033816;28;20208;-88
2022/01/22 12:28:05;;;;;;;4.70;2.40;;;6.70;95.00;;;;;;5033349;28;20168;-88
2022/01/22 12:30:36;;;;;;;6.90;2.17;;;6.70;95.00;;;;;;5033346;28;20732;-88
2022/01/22 12:33:05;;;;;;;3.40;2.33;;;6.70;95.00;;;;;;5032139;28;20256;-88
2022/01/22 12:35:38;;;;;;;4.43;2.20;;;6.80;95.10;;;;;;5033537;28;20178;-87
2022/01/22 12:40:59;;;;;;;3.93;2.10;;;6.70;94.90;;;;;;5033572;28;20162;-87
2022/01/22 12:43:32;;;;;;;4.17;2.20;;;6.70;94.90;;;;;;5032197;28;20195;-87
2022/01/22 12:46:00;;;;;;;3.00;2.20;;;6.80;94.90;;;;;;5032166;28;20220;-89
2022/01/22 12:48:36;;;;;;;7.27;1.80;;;6.90;94.90;;;;;;5032445;28;20177;-87
2022/01/22 12:51:08;;;;;;;3.90;2.20;;;7.00;94.90;;;;;;5031797;28;20223;-88
2022/01/22 12:53:35;;;;;;;7.20;2.27;;;7.00;94.80;;;;;;5031956;28;20177;-89
2022/01/22 12:56:24;;;;;;;6.00;2.10;;;7.10;94.70;;;;;;5032567;28;20173;-88
2022/01/22 12:58:47;;;;;;;5.43;1.90;;;7.10;94.70;;;;;;5033662;28;20201;-87
2022/01/22 13:01:27;;;;;;;4.73;1.67;;;7.10;94.60;;;;;;5036295;28;20520;-88
2022/01/22 13:03:55;;;;;;;5.03;2.03;;;7.00;94.30;;;;;;5036907;28;20153;-89
2022/01/22 13:06:24;;;;;;;2.90;1.90;;;6.90;94.30;;;;;;5035459;28;20211;-87
2022/01/22 13:08:55;;;;;;;5.00;2.20;;;7.00;94.30;;;;;;5035495;28;20212;-88
2022/01/22 13:11:25;;;;;;;8.30;2.13;;;7.00;94.30;;;;;;5036654;28;20168;-88
2022/01/22 13:13:51;;;;;;;1.90;1.70;;;6.90;94.00;;;;;;5035160;28;20165;-87
2022/01/22 13:16:19;;;;;;;3.97;2.10;;;6.80;94.00;;;;;;5035409;28;20237;-88
2022/01/22 13:18:52;;;;;;;4.30;2.33;;;6.90;93.90;;;;;;5035444;28;20181;-88
2022/01/22 13:21:20;;;;;;;2.47;2.13;;;7.00;93.90;;;;;;5035849;28;20179;-88
2022/01/22 13:24:01;;;;;;;6.77;2.07;;;6.90;93.80;;;;;;5035281;28;20645;-88
2022/01/22 13:26:51;;;;;;;1.97;1.87;;;6.80;93.50;;;;;;5036381;28;20200;-89
2022/01/22 13:29:39;;;;;;;2.83;1.60;;;6.80;93.40;;;;;;5034923;28;20188;-88
2022/01/22 13:32:19;;;;;;;5.30;1.87;;;6.80;93.40;;;;;;5034804;28;20161;-89
2022/01/22 13:35:13;;;;;;;4.57;1.83;;;6.80;93.30;;;;;;5036235;28;20510;-88
2022/01/22 13:38:30;;;;;;;1.80;1.70;;;6.90;93.30;;;;;;5034710;28;20161;-88
2022/01/22 13:49:08;;;;;;;3.60;1.87;;;6.80;93.40;;;;;;5036184;28;20396;-89
2022/01/22 13:51:34;;;;;;;3.37;1.80;;;6.80;93.40;;;;;;5035588;28;20192;-89
2022/01/22 13:54:01;;;;;;;5.30;2.10;;;6.80;93.30;;;;;;5035570;28;20642;-89
2022/01/22 13:56:57;;;;;;;5.93;1.73;;;6.80;93.30;;;;;;5034464;28;20184;-89
2022/01/22 13:59:26;;;;;;;6.07;1.73;;;6.80;93.20;;;;;;5032654;28;20220;-89
2022/01/22 14:04:50;;;;;;;2.67;1.70;;;6.80;93.20;;;;;;5036036;28;20185;-88
2022/01/22 14:07:18;;;;;;;2.60;1.80;;;6.70;93.20;;;;;;5034194;28;20254;-89
2022/01/22 14:09:56;;;;;;;5.83;2.30;;;6.70;93.20;;;;;;5035758;28;20673;-89
2022/01/22 14:12:24;;;;;;;3.70;1.97;;;6.80;93.40;;;;;;5034488;28;20222;-88
2022/01/22 14:15:17;;;;;;;6.03;2.30;;;6.80;93.30;;;;;;5033953;28;20212;-89
2022/01/22 14:20:47;;;;;;;5.03;2.30;;;6.60;93.50;;;;;;5025811;28;20562;-87
2022/01/22 14:23:16;;;;;;;6.23;1.90;;;6.60;93.60;;;;;;5033924;28;20186;-87
2022/01/22 14:26:08;;;;;;;2.03;1.60;;;6.60;93.70;;;;;;5035223;28;20207;-90
2022/01/22 14:28:44;;;;;;;3.13;1.70;;;6.60;93.80;;;;;;5034933;28;20184;-90
2022/01/22 14:31:29;;;;;;;6.23;1.90;;;6.50;93.70;;;;;;5033725;28;20186;-89
2022/01/22 14:34:04;;;;;;;6.80;1.73;;;6.50;93.60;;;;;;5033611;28;20172;-90
2022/01/22 14:36:32;;;;;;;9.20;2.33;;;6.50;93.50;;;;;;5033801;28;20187;-90
2022/01/22 14:39:17;;;;;;;5.73;1.90;;;6.50;93.40;;;;;;5033669;28;20200;-89
2022/01/22 14:44:45;;;;;;;4.87;1.87;;;6.50;93.70;;;;;;5034656;28;20310;-89
2022/01/22 14:47:17;;;;;;;5.10;2.07;;;6.50;93.90;;;;;;5034583;28;20167;-87
2022/01/22 14:49:52;;;;;;;5.67;1.93;;;6.50;93.90;;;;;;5034615;28;20192;-89
2022/01/22 14:52:25;;;;;;;5.50;1.87;;;6.50;94.00;;;;;;5034607;28;20157;-89
2022/01/22 14:54:52;;;;;;;3.17;1.83;;;6.40;94.10;;;;;;5033240;28;20188;-89